| time (UTC) | temp F | wind direction | speed knots | gust knots | rain 1hr in | rain 24hr in | rain mn in | humidity % | barometer mb |
| 20260506010029 | 47 | 127 | 0.9 | 6.1 | 0.00 | 0.00 | 0.00 | 76 | 1016.5 |
| 20260506004530 | 47 | 126 | 0.9 | 4.3 | 0.00 | 0.00 | 0.00 | 77 | 1016.4 |
| 20260506003035 | 48 | 75 | 1.7 | 4.3 | 0.00 | 0.00 | 0.00 | 77 | 1016.5 |
| 20260506001530 | 48 | 109 | 1.7 | 4.3 | 0.00 | 0.00 | 0.00 | 76 | 1016.5 |
| 20260506000038 | 47 | 74 | 2.6 | 7.0 | 0.00 | 0.00 | 0.00 | 77 | 1016.5 |
| 20260505234549 | 48 | 101 | 1.7 | 6.1 | 0.00 | 0.00 | 0.00 | 76 | 1016.4 |
| 20260505233038 | 48 | 56 | 1.7 | 5.2 | 0.00 | 0.00 | 0.00 | 75 | 1016.5 |
| 20260505231531 | 48 | 79 | 1.7 | 5.2 | 0.00 | 0.00 | 0.00 | 75 | 1016.5 |
| 20260505230042 | 48 | 70 | 1.7 | 5.2 | 0.00 | 0.00 | 0.00 | 75 | 1016.5 |
| 20260505224543 | 49 | 30 | 1.7 | 5.2 | 0.00 | 0.00 | 0.00 | 78 | 1016.6 |
| 20260505223108 | 49 | 112 | 2.6 | 4.3 | 0.00 | 0.00 | 0.00 | 80 | 1016.6 |
| 20260505221500 | 48 | 124 | 0.9 | 3.5 | 0.00 | 0.00 | 0.00 | 82 | 1016.6 |
| 20260505220050 | 48 | 152 | 0.0 | 0.9 | 0.00 | 0.00 | 0.00 | 83 | 1016.4 |
| 20260505214554 | 48 | 148 | 0.0 | 0.9 | 0.00 | 0.00 | 0.00 | 82 | 1016.4 |
| 20260505213053 | 48 | 132 | 0.9 | 1.7 | 0.00 | 0.00 | 0.00 | 80 | 1016.3 |
| 20260505211612 | 50 | 186 | 0.0 | 1.7 | 0.00 | 0.00 | 0.00 | 78 | 1016.2 |
| 20260505210051 | 50 | 323 | 0.0 | 0.9 | 0.00 | 0.00 | 0.00 | 79 | 1016.2 |
| 20260505204555 | 50 | 323 | 0.0 | 0.9 | 0.00 | 0.00 | 0.00 | 78 | 1016.1 |
| 20260505203006 | 50 | 290 | 0.0 | 1.7 | 0.00 | 0.00 | 0.00 | 78 | 1016.3 |
| 20260505201510 | 50 | 330 | 0.0 | 2.6 | 0.00 | 0.00 | 0.00 | 77 | 1016.3 |
| 20260505200005 | 51 | 295 | 0.0 | 2.6 | 0.00 | 0.00 | 0.00 | 76 | 1016.3 |
| 20260505194602 | 51 | 263 | 0.0 | 3.5 | 0.00 | 0.00 | 0.00 | 76 | 1016.3 |
| 20260505193006 | 51 | 342 | 0.0 | 3.5 | 0.00 | 0.00 | 0.00 | 75 | 1016.1 |
| 20260505191518 | 52 | 265 | 1.7 | 3.5 | 0.00 | 0.00 | 0.00 | 73 | 1016.0 |
| 20260505190014 | 53 | 283 | 0.0 | 5.2 | 0.00 | 0.00 | 0.00 | 72 | 1015.9 |
| 20260505184527 | 54 | 355 | 0.9 | 5.2 | 0.00 | 0.00 | 0.00 | 70 | 1015.9 |
| 20260505183014 | 54 | 311 | 0.9 | 5.2 | 0.00 | 0.00 | 0.00 | 73 | 1015.9 |
| 20260505181509 | 55 | 275 | 0.9 | 5.2 | 0.00 | 0.00 | 0.00 | 71 | 1015.9 |
| 20260505180020 | 54 | 312 | 0.9 | 6.1 | 0.00 | 0.00 | 0.00 | 71 | 1015.8 |
| 20260505174515 | 55 | 258 | 0.9 | 7.0 | 0.00 | 0.00 | 0.00 | 70 | 1015.9 |
| 20260505173008 | 55 | 268 | 1.7 | 7.0 | 0.00 | 0.00 | 0.00 | 72 | 1015.9 |
| 20260505171521 | 55 | 321 | 1.7 | 7.0 | 0.00 | 0.00 | 0.00 | 70 | 1016.0 |
| 20260505170037 | 55 | 316 | 1.7 | 7.0 | 0.00 | 0.00 | 0.00 | 72 | 1016.0 |
| 20260505164533 | 55 | 349 | 2.6 | 6.1 | 0.00 | 0.00 | 0.00 | 70 | 1016.1 |
| 20260505163041 | 55 | 289 | 1.7 | 7.0 | 0.00 | 0.00 | 0.00 | 70 | 1016.1 |
| 20260505161547 | 56 | 330 | 2.6 | 7.0 | 0.00 | 0.00 | 0.00 | 68 | 1016.1 |
| 20260505153048 | 54 | 286 | 2.6 | 6.1 | 0.00 | 0.00 | 0.00 | 72 | 1016.1 |
| 20260505151547 | 54 | 319 | 1.7 | 4.3 | 0.00 | 0.00 | 0.00 | 71 | 1016.0 |
| 20260505124521 | 54 | 25 | 2.6 | 7.8 | 0.00 | 0.00 | 0.00 | 69 | 1016.1 |
| 20260505123017 | 55 | 356 | 1.7 | 7.0 | 0.00 | 0.00 | 0.00 | 72 | 1016.0 |
| 20260505121510 | 54 | 276 | 2.6 | 6.1 | 0.00 | 0.00 | 0.00 | 74 | 1016.2 |
| 20260505120026 | 53 | 63 | 3.5 | 13.0 | 0.00 | 0.00 | 0.00 | 76 | 1016.4 |
| 20260505114519 | 54 | 304 | 3.5 | 8.7 | 0.00 | 0.00 | 0.00 | 75 | 1016.4 |
| 20260505113011 | 54 | 314 | 3.5 | 8.7 | 0.00 | 0.00 | 0.00 | 73 | 1016.3 |
| 20260505111539 | 53 | 326 | 2.6 | 8.7 | 0.00 | 0.00 | 0.00 | 73 | 1016.4 |
| 20260505101537 | 50 | 316 | 2.6 | 6.1 | 0.00 | 0.00 | 0.00 | 82 | 1016.4 |
| 20260505100040 | 50 | 290 | 2.6 | 7.8 | 0.00 | 0.00 | 0.00 | 85 | 1016.3 |
| 20260505094534 | 52 | 359 | 3.5 | 7.8 | 0.00 | 0.00 | 0.00 | 82 | 1016.4 |
| 20260505093050 | 53 | 264 | 1.7 | 7.8 | 0.00 | 0.00 | 0.00 | 81 | 1016.3 |
| 20260505091543 | 52 | 350 | 3.5 | 7.8 | 0.00 | 0.00 | 0.00 | 82 | 1016.2 |
| 20260505090039 | 52 | 338 | 1.7 | 4.3 | 0.00 | 0.00 | 0.00 | 83 | 1016.2 |
| 20260505084544 | 51 | 309 | 1.7 | 4.3 | 0.00 | 0.00 | 0.00 | 84 | 1016.2 |
| 20260505083050 | 51 | 321 | 2.6 | 5.2 | 0.00 | 0.00 | 0.00 | 84 | 1016.1 |
| 20260505081546 | 50 | 321 | 1.7 | 5.2 | 0.00 | 0.00 | 0.00 | 85 | 1016.3 |
| 20260505080043 | 50 | 333 | 1.7 | 6.1 | 0.00 | 0.00 | 0.00 | 87 | 1016.3 |
| 20260505074542 | 49 | 8 | 1.7 | 5.2 | 0.00 | 0.00 | 0.00 | 89 | 1016.3 |
| 20260505073050 | 48 | 36 | 1.7 | 5.2 | 0.00 | 0.00 | 0.00 | 91 | 1016.3 |
| 20260505071551 | 45 | 169 | 0.0 | 1.7 | 0.00 | 0.00 | 0.00 | 92 | 1016.3 |
| 20260505070105 | 45 | 209 | 0.0 | 3.5 | 0.00 | 0.00 | 0.00 | 91 | 1016.2 |
| 20260505064555 | 45 | 214 | 1.7 | 4.3 | 0.00 | 0.00 | 0.00 | 91 | 1016.3 |